createdAt,value
2018-10-16T00:01:07.155Z,9.90
2018-10-16T00:06:10.779Z,10.00
2018-10-16T00:11:14.378Z,10.00
2018-10-16T00:16:17.937Z,10.10
2018-10-16T00:21:21.584Z,10.00
2018-10-16T00:26:25.160Z,9.90
2018-10-16T00:31:28.834Z,9.80
2018-10-16T00:36:32.507Z,9.70
2018-10-16T00:41:36.399Z,9.70
2018-10-16T00:46:41.806Z,9.60
2018-10-16T00:51:45.531Z,9.50
2018-10-16T00:56:49.074Z,9.40
2018-10-16T01:01:52.686Z,9.60
2018-10-16T01:06:56.246Z,9.40
2018-10-16T01:11:59.802Z,9.40
2018-10-16T01:17:03.351Z,9.40
2018-10-16T01:22:06.942Z,9.30
2018-10-16T01:27:10.565Z,9.40
2018-10-16T01:32:14.195Z,9.50
2018-10-16T01:37:17.790Z,9.30
2018-10-16T01:42:21.330Z,9.10
2018-10-16T01:47:25.688Z,9.20
2018-10-16T01:52:29.351Z,9.00
2018-10-16T01:57:32.896Z,9.10
2018-10-16T02:02:36.508Z,9.00
2018-10-16T02:07:40.142Z,8.90
2018-10-16T02:12:43.759Z,8.90
2018-10-16T02:17:47.314Z,8.80
2018-10-16T02:22:50.955Z,8.70
2018-10-16T02:27:54.597Z,8.90
2018-10-16T02:32:58.184Z,8.90
2018-10-16T02:38:01.790Z,8.90
2018-10-16T02:43:05.772Z,8.90
2018-10-16T02:48:09.342Z,8.80
2018-10-16T02:53:13.128Z,8.60
2018-10-16T02:58:16.757Z,8.70
2018-10-16T03:03:20.349Z,8.70
2018-10-16T03:08:23.955Z,8.60
2018-10-16T03:13:27.515Z,8.70
2018-10-16T03:18:31.117Z,8.50
2018-10-16T03:23:34.730Z,8.50
2018-10-16T03:28:38.905Z,8.50
2018-10-16T03:33:42.513Z,8.40
2018-10-16T03:38:46.064Z,8.40
2018-10-16T03:43:57.119Z,8.30
2018-10-16T03:49:00.716Z,8.40
2018-10-16T03:54:04.402Z,8.60
2018-10-16T03:59:07.963Z,8.30
2018-10-16T04:04:13.632Z,8.20
2018-10-16T04:09:17.172Z,8.10
2018-10-16T04:14:22.062Z,8.10
2018-10-16T04:19:25.658Z,8.10
2018-10-16T04:24:29.309Z,8.10
2018-10-16T04:29:33.024Z,8.20
2018-10-16T04:34:36.606Z,8.00
2018-10-16T04:39:42.708Z,7.90
2018-10-16T04:44:47.477Z,7.80
2018-10-16T04:49:52.878Z,7.90
2018-10-16T04:55:01.490Z,7.80
2018-10-16T05:00:05.727Z,8.00
2018-10-16T05:05:15.055Z,8.10
2018-10-16T05:10:19.109Z,8.00
2018-10-16T05:15:33.442Z,7.90
2018-10-16T05:20:37.014Z,7.80
2018-10-16T05:25:40.570Z,7.60
2018-10-16T05:30:44.179Z,7.60
2018-10-16T05:35:47.802Z,7.70
2018-10-16T05:40:51.378Z,7.60
2018-10-16T05:45:55.083Z,7.60
2018-10-16T05:50:58.623Z,7.40
2018-10-16T05:56:05.190Z,7.50
2018-10-16T06:01:08.735Z,7.40
2018-10-16T06:06:12.258Z,7.50
2018-10-16T06:11:15.779Z,7.80
2018-10-16T06:16:19.390Z,7.60
2018-10-16T06:21:22.916Z,7.40
2018-10-16T06:26:26.606Z,7.60
2018-10-16T06:31:30.161Z,7.60
2018-10-16T06:36:33.710Z,7.80
2018-10-16T06:41:37.286Z,8.00
2018-10-16T06:46:40.874Z,8.10
2018-10-16T06:51:44.426Z,8.20
2018-10-16T06:56:48.085Z,8.40
2018-10-16T07:01:51.657Z,8.50
2018-10-16T07:06:55.344Z,8.70
2018-10-16T07:11:58.803Z,8.90
2018-10-16T07:17:02.475Z,8.90
2018-10-16T07:22:09.617Z,9.10
2018-10-16T07:27:13.443Z,9.30
2018-10-16T07:32:17.130Z,9.70
2018-10-16T07:37:20.781Z,9.90
2018-10-16T07:42:24.385Z,10.10
2018-10-16T07:47:28.120Z,10.20
2018-10-16T07:52:31.658Z,10.40
2018-10-16T07:57:35.483Z,10.50
2018-10-16T08:02:39.973Z,10.90
2018-10-16T08:07:43.718Z,11.70
2018-10-16T08:12:47.266Z,13.90
2018-10-16T08:17:50.887Z,15.30
2018-10-16T08:22:54.430Z,16.20
2018-10-16T08:27:58.016Z,16.40
2018-10-16T08:33:06.695Z,16.10
2018-10-16T08:38:50.850Z,17.20
2018-10-16T08:44:05.706Z,17.30
2018-10-16T08:49:20.459Z,17.00
2018-10-16T08:54:24.013Z,17.80
2018-10-16T08:59:28.642Z,18.40
2018-10-16T09:04:32.249Z,19.60
2018-10-16T09:09:36.019Z,19.80
2018-10-16T09:14:39.608Z,20.10
2018-10-16T09:19:44.259Z,21.40
2018-10-16T09:24:47.811Z,21.80
2018-10-16T09:29:51.382Z,22.30
2018-10-16T09:35:00.997Z,21.50
2018-10-16T09:40:04.810Z,22.50
2018-10-16T09:45:09.681Z,22.90
2018-10-16T09:50:13.241Z,22.20
2018-10-16T09:55:16.803Z,23.10
2018-10-16T10:00:25.619Z,23.00
2018-10-16T10:05:29.247Z,23.80
2018-10-16T10:10:32.890Z,22.40
2018-10-16T10:15:36.494Z,22.00
2018-10-16T10:20:40.090Z,21.80
2018-10-16T10:25:43.667Z,21.50
2018-10-16T10:30:47.259Z,21.30
2018-10-16T10:35:50.806Z,21.10
2018-10-16T10:40:54.574Z,21.00
2018-10-16T10:45:58.242Z,20.80
2018-10-16T10:51:02.021Z,20.40
2018-10-16T10:56:07.481Z,20.30
2018-10-16T11:01:12.282Z,20.30
2018-10-16T11:06:15.877Z,20.70
2018-10-16T11:11:19.422Z,20.50
2018-10-16T11:16:22.962Z,20.60
2018-10-16T11:21:26.656Z,20.70
2018-10-16T11:26:30.491Z,20.60
2018-10-16T11:31:34.138Z,20.80
2018-10-16T11:36:38.022Z,21.30
2018-10-16T11:41:41.838Z,21.10
2018-10-16T11:46:47.069Z,20.50
2018-10-16T11:51:51.239Z,20.80
2018-10-16T11:56:54.927Z,21.30
2018-10-16T12:01:58.964Z,20.50
2018-10-16T12:07:08.571Z,21.10
2018-10-16T12:12:12.299Z,21.40
2018-10-16T12:17:25.448Z,21.60
2018-10-16T12:22:29.131Z,21.70
2018-10-16T12:27:32.856Z,21.80
2018-10-16T12:32:37.080Z,21.00
2018-10-16T12:37:42.706Z,21.20
2018-10-16T12:42:46.525Z,21.70
2018-10-16T12:47:50.310Z,21.50
2018-10-16T12:52:53.902Z,21.70
2018-10-16T12:57:57.458Z,21.70
2018-10-16T13:03:01.546Z,21.70
2018-10-16T13:08:05.431Z,21.30
2018-10-16T13:13:08.970Z,21.40
2018-10-16T13:18:12.649Z,21.70
2018-10-16T13:23:16.420Z,21.80
2018-10-16T13:28:21.040Z,22.00
2018-10-16T13:33:24.730Z,21.90
2018-10-16T13:38:28.317Z,22.00
2018-10-16T13:43:33.730Z,22.10
2018-10-16T13:48:37.407Z,22.00
2018-10-16T13:53:40.934Z,22.00
2018-10-16T13:58:44.498Z,21.70
2018-10-16T14:03:48.128Z,21.60
2018-10-16T14:08:51.699Z,21.60
2018-10-16T14:13:55.265Z,21.80
2018-10-16T14:18:58.826Z,21.10
2018-10-16T14:24:02.642Z,20.80
2018-10-16T14:29:06.589Z,21.60
2018-10-16T14:34:10.510Z,21.60
2018-10-16T14:39:18.906Z,21.50
2018-10-16T14:44:23.341Z,21.60
2018-10-16T14:49:26.934Z,21.80
2018-10-16T14:54:30.715Z,21.80
2018-10-16T14:59:35.477Z,21.70
2018-10-16T15:04:42.504Z,21.60
2018-10-16T15:09:47.220Z,21.50
2018-10-16T15:14:50.870Z,21.40
2018-10-16T15:19:54.628Z,21.50
2018-10-16T15:25:06.027Z,21.40
2018-10-16T15:30:10.493Z,21.20
2018-10-16T15:35:14.198Z,20.90
2018-10-16T15:40:18.742Z,20.60
2018-10-16T15:45:23.521Z,20.70
2018-10-16T15:50:28.221Z,20.80
2018-10-16T15:55:32.825Z,20.80
2018-10-16T16:00:38.563Z,20.60
2018-10-16T16:05:42.326Z,20.30
2018-10-16T16:10:46.959Z,20.10
2018-10-16T16:15:50.604Z,20.00
2018-10-16T16:20:54.210Z,19.70
2018-10-16T16:25:58.129Z,19.30
2018-10-16T16:31:01.775Z,19.20
2018-10-16T16:36:06.515Z,19.20
2018-10-16T16:41:10.276Z,19.10
2018-10-16T16:46:13.929Z,19.10
2018-10-16T16:51:17.487Z,19.20
2018-10-16T16:56:21.031Z,19.10
2018-10-16T17:01:27.814Z,19.00
2018-10-16T17:06:31.442Z,18.90
2018-10-16T17:11:35.106Z,18.80
2018-10-16T17:16:40.709Z,18.70
2018-10-16T17:21:44.392Z,18.60
2018-10-16T17:26:47.999Z,18.40
2018-10-16T17:31:51.589Z,18.30
2018-10-16T17:36:55.217Z,18.10
2018-10-16T17:41:59.903Z,18.00
2018-10-16T17:47:08.054Z,17.90
2018-10-16T17:52:11.759Z,17.80
2018-10-16T17:57:17.816Z,17.70
2018-10-16T18:02:25.551Z,17.60
2018-10-16T18:07:29.251Z,17.30
2018-10-16T18:12:33.099Z,17.00
2018-10-16T18:17:38.875Z,16.70
2018-10-16T18:22:42.981Z,16.50
2018-10-16T18:27:46.978Z,16.40
2018-10-16T18:32:51.635Z,16.20
2018-10-16T18:37:55.346Z,16.00
2018-10-16T18:42:59.342Z,16.00
2018-10-16T18:48:03.038Z,15.90
2018-10-16T18:53:07.058Z,15.80
2018-10-16T18:58:10.810Z,15.80
2018-10-16T19:03:15.784Z,15.80
2018-10-16T19:08:19.483Z,15.80
2018-10-16T19:13:23.228Z,15.70
2018-10-16T19:18:27.161Z,15.80
2018-10-16T19:23:33.263Z,15.70
2018-10-16T19:28:38.480Z,15.50
2018-10-16T19:33:42.137Z,15.40
2018-10-16T19:38:45.810Z,15.60
2018-10-16T19:43:49.514Z,15.40
2018-10-16T19:48:55.313Z,15.30
2018-10-16T19:53:59.193Z,15.30
2018-10-16T19:59:38.776Z,15.20
2018-10-16T20:04:44.905Z,15.30
2018-10-16T20:09:50.052Z,15.10
2018-10-16T20:14:53.706Z,16.20
2018-10-16T20:19:58.443Z,15.10
2018-10-16T20:25:02.020Z,15.00
2018-10-16T20:30:07.302Z,14.80
2018-10-16T20:35:10.920Z,14.70
2018-10-16T20:40:14.578Z,14.60
2018-10-16T20:45:18.403Z,14.40
2018-10-16T20:50:22.343Z,14.20
2018-10-16T20:55:26.006Z,14.10
2018-10-16T21:00:29.600Z,13.90
2018-10-16T21:05:33.351Z,13.80
2018-10-16T21:10:37.310Z,13.60
2018-10-16T21:15:42.101Z,13.40
2018-10-16T21:20:45.973Z,13.40
2018-10-16T21:25:50.732Z,13.40
2018-10-16T21:30:54.541Z,13.30
2018-10-16T21:35:58.215Z,13.40
2018-10-16T21:41:03.872Z,13.20
2018-10-16T21:46:09.617Z,13.10
2018-10-16T21:51:13.537Z,13.10
2018-10-16T21:56:17.099Z,12.90
2018-10-16T22:01:25.627Z,12.90
2018-10-16T22:06:29.251Z,12.80
2018-10-16T22:11:33.534Z,12.70
2018-10-16T22:16:37.243Z,12.70
2018-10-16T22:21:40.850Z,12.70
2018-10-16T22:26:44.462Z,12.50
2018-10-16T22:31:48.089Z,12.50
2018-10-16T22:36:51.671Z,12.30
2018-10-16T22:41:55.598Z,12.30
2018-10-16T22:46:59.482Z,12.10
2018-10-16T22:52:03.094Z,12.10
2018-10-16T22:57:06.755Z,12.00
2018-10-16T23:02:10.306Z,12.00
2018-10-16T23:07:19.232Z,11.90
2018-10-16T23:12:22.994Z,11.90
2018-10-16T23:17:26.607Z,12.10
2018-10-16T23:22:30.170Z,11.90
2018-10-16T23:27:35.310Z,11.90
2018-10-16T23:32:38.987Z,11.80
2018-10-16T23:37:42.630Z,11.80
2018-10-16T23:42:46.218Z,11.70
2018-10-16T23:47:49.906Z,11.80
2018-10-16T23:52:53.467Z,11.70
2018-10-16T23:57:57.178Z,11.20
